Airport ID:KGOO
Update Time (UTC):23/09/2021 01:49
Wind Speed (Knots):0
Wind Direction (Magnetic):240
Temperature (°C):25
Dew Point (°C):4
Humidity (%):26
Altimeter (inHg):30.12
Density Altitude (Feet):5000
Visibility:10+
Clouds (Hundreds of feet):CLR
Present Weather:
METAR:METAR KGOO 230145Z AUTO 00000KT 10SM CLR 25/04 A3012 RMK A01

The data displayed is for advisory purposes only and is not to be used for flight planning or operations.